Time,TemperatureF,DewpointF,PressureIn,WindDirection,WindDirectionDegrees,WindSpeedMPH,WindSpeedGustMPH,Humidity,HourlyPrecipIn,Conditions,Clouds,dailyrainin,SoftwareType,DateUTC
2013-02-08 00:00:00,25.4,20.4,30.23,NNE,18,7.0,7.0,81,0.00,,,0.00,Wunderground v.1.15,2013-02-08 06:00:00,
2013-02-08 00:30:00,25.0,18.8,30.24,North,11,7.0,7.0,77,0.00,,,0.00,Wunderground v.1.15,2013-02-08 06:30:00,
2013-02-08 01:00:00,24.4,17.3,30.24,ENE,60,8.0,8.0,74,0.00,,,0.00,Wunderground v.1.15,2013-02-08 07:00:00,
2013-02-08 01:30:00,23.6,15.6,30.25,NE,34,10.0,10.0,71,0.00,,,0.00,Wunderground v.1.15,2013-02-08 07:30:00,
2013-02-08 02:00:00,23.2,14.5,30.26,NE,53,10.0,11.0,69,0.00,,,0.00,Wunderground v.1.15,2013-02-08 08:00:00,
2013-02-08 02:30:00,23.0,14.7,30.27,NNE,26,9.0,9.0,70,0.00,,,0.00,Wunderground v.1.15,2013-02-08 08:30:00,
2013-02-08 03:00:00,22.5,14.5,30.28,NE,42,3.0,4.0,71,0.00,,,0.00,Wunderground v.1.15,2013-02-08 09:00:00,
2013-02-08 03:30:00,21.3,12.0,30.28,NNW,343,5.0,5.0,67,0.00,,,0.00,Wunderground v.1.15,2013-02-08 09:30:00,
2013-02-08 04:00:00,20.2,11.3,30.29,North,349,4.0,4.0,68,0.00,,,0.00,Wunderground v.1.15,2013-02-08 10:00:00,
2013-02-08 04:30:00,19.4,10.6,30.29,NE,36,4.0,7.0,68,0.00,,,0.00,Wunderground v.1.15,2013-02-08 10:30:00,
2013-02-08 05:00:00,18.9,10.1,30.31,NE,53,3.0,3.0,68,0.00,,,0.00,Wunderground v.1.15,2013-02-08 11:00:00,
2013-02-08 05:30:00,18.4,9.6,30.32,NNW,348,2.0,3.0,68,0.00,,,0.00,Wunderground v.1.15,2013-02-08 11:30:00,
2013-02-08 06:00:00,17.0,9.5,30.34,NNW,336,2.0,3.0,72,0.00,,,0.00,Wunderground v.1.15,2013-02-08 12:00:00,
2013-02-08 06:30:00,16.5,9.7,30.34,NE,41,1.0,1.0,74,0.00,,,0.00,Wunderground v.1.15,2013-02-08 12:30:00,
2013-02-08 07:00:00,15.2,9.0,30.35,NE,41,0.0,2.0,76,0.00,,,0.00,Wunderground v.1.15,2013-02-08 13:00:00,
2013-02-08 07:30:00,14.0,9.2,30.37,NNW,329,1.0,2.0,81,0.00,,,0.00,Wunderground v.1.15,2013-02-08 13:30:00,
2013-02-08 08:00:00,14.8,9.5,30.39,NNW,335,0.0,0.0,79,0.00,,,0.00,Wunderground v.1.15,2013-02-08 14:00:00,
2013-02-08 08:30:00,15.1,9.5,30.39,NNW,343,3.0,4.0,78,0.00,,,0.00,Wunderground v.1.15,2013-02-08 14:30:00,
2013-02-08 09:00:00,16.7,10.4,30.40,NNW,342,1.0,1.0,76,0.00,,,0.00,Wunderground v.1.15,2013-02-08 15:00:00,
2013-02-08 09:30:00,17.8,10.6,30.40,NNW,347,2.0,2.0,73,0.00,,,0.00,Wunderground v.1.15,2013-02-08 15:30:00,
2013-02-08 10:00:00,19.2,9.7,30.40,ENE,78,9.0,9.0,66,0.00,,,0.00,Wunderground v.1.15,2013-02-08 16:00:00,
2013-02-08 10:30:00,19.9,9.0,30.40,North,351,8.0,8.0,62,0.00,,,0.00,Wunderground v.1.15,2013-02-08 16:30:00,
2013-02-08 11:00:00,20.6,9.3,30.40,ENE,76,6.0,7.0,61,0.00,,,0.00,Wunderground v.1.15,2013-02-08 17:00:00,
2013-02-08 11:30:00,21.0,8.5,30.40,East,86,7.0,9.0,58,0.00,,,0.00,Wunderground v.1.15,2013-02-08 17:30:00,
2013-02-08 12:00:00,22.1,8.4,30.39,East,83,5.0,6.0,55,0.00,,,0.00,Wunderground v.1.15,2013-02-08 18:00:00,
2013-02-08 12:30:00,22.9,8.7,30.37,NE,41,4.0,4.0,54,0.00,,,0.00,Wunderground v.1.15,2013-02-08 18:30:00,
2013-02-08 13:00:00,23.5,8.9,30.38,NW,316,2.0,3.0,53,0.00,,,0.00,Wunderground v.1.15,2013-02-08 19:00:00,
2013-02-08 13:30:00,24.1,9.4,30.37,WNW,302,3.0,3.0,53,0.00,,,0.00,Wunderground v.1.15,2013-02-08 19:30:00,
2013-02-08 14:00:00,25.0,9.0,30.36,NW,318,2.0,3.0,50,0.00,,,0.00,Wunderground v.1.15,2013-02-08 20:00:00,
2013-02-08 14:30:00,25.1,9.0,30.36,North,351,2.0,2.0,50,0.00,,,0.00,Wunderground v.1.15,2013-02-08 20:30:00,
2013-02-08 15:00:00,26.3,9.2,30.35,West,261,1.0,1.0,48,0.00,,,0.00,Wunderground v.1.15,2013-02-08 21:00:00,
2013-02-08 15:30:00,26.7,9.6,30.34,SSE,161,0.0,0.0,48,0.00,,,0.00,Wunderground v.1.15,2013-02-08 21:30:00,
2013-02-08 16:00:00,27.0,8.9,30.34,ESE,111,2.0,2.0,46,0.00,,,0.00,Wunderground v.1.15,2013-02-08 22:00:00,
2013-02-08 16:30:00,26.0,8.5,30.33,SSE,149,3.0,3.0,47,0.00,,,0.00,Wunderground v.1.15,2013-02-08 22:30:00,
2013-02-08 17:00:00,25.6,8.6,30.33,ESE,122,3.0,3.0,48,0.00,,,0.00,Wunderground v.1.15,2013-02-08 23:00:00,
2013-02-08 17:30:00,25.3,9.2,30.33,ESE,117,3.0,3.0,50,0.00,,,0.00,Wunderground v.1.15,2013-02-08 23:30:00,
2013-02-08 18:00:00,23.9,8.8,30.33,ESE,113,2.0,2.0,52,0.00,,,0.00,Wunderground v.1.15,2013-02-09 00:00:00,
2013-02-08 18:30:00,23.2,9.0,30.33,ESE,113,2.0,2.0,54,0.00,,,0.00,Wunderground v.1.15,2013-02-09 00:30:00,
2013-02-08 19:00:00,22.2,9.3,30.33,ESE,117,2.0,2.0,57,0.00,,,0.00,Wunderground v.1.15,2013-02-09 01:00:00,
2013-02-08 19:30:00,22.2,10.0,30.32,ESE,113,3.0,4.0,59,0.00,,,0.00,Wunderground v.1.15,2013-02-09 01:30:00,
2013-02-08 20:00:00,20.2,9.6,30.33,ESE,118,0.0,0.0,63,0.00,,,0.00,Wunderground v.1.15,2013-02-09 02:00:00,
2013-02-08 20:30:00,18.4,8.9,30.33,ESE,120,2.0,2.0,66,0.00,,,0.00,Wunderground v.1.15,2013-02-09 02:30:00,
2013-02-08 21:00:00,18.0,8.5,30.33,ESE,111,2.0,2.0,66,0.00,,,0.00,Wunderground v.1.15,2013-02-09 03:00:00,
2013-02-08 21:30:00,16.4,8.6,30.33,ESE,113,1.0,1.0,71,0.00,,,0.00,Wunderground v.1.15,2013-02-09 03:30:00,
2013-02-08 22:00:00,16.9,8.2,30.31,ESE,107,4.0,5.0,68,0.00,,,0.00,Wunderground v.1.15,2013-02-09 04:00:00,
2013-02-08 22:30:00,15.1,7.4,30.31,ESE,107,1.0,1.0,71,0.00,,,0.00,Wunderground v.1.15,2013-02-09 04:30:00,
2013-02-08 23:00:00,15.4,7.0,30.30,ESE,117,3.0,3.0,69,0.00,,,0.00,Wunderground v.1.15,2013-02-09 05:00:00,
2013-02-08 23:30:00,16.1,6.7,30.31,ESE,115,2.0,3.0,66,0.00,,,0.00,Wunderground v.1.15,2013-02-09 05:30:00,